Rankings de siempre
Mejores tiempos personales válidos de equipo a través de todos los eventos y temporadas. Cada equipo aparece una vez por división.
Busca por nombre y abre la página donde está clasificado este récord de división.
13,786 equipos clasificados
| Pos. | Pos. AG | Equipo | Nacionalidad | Categoría de edad | TiempoMejor tiempo | Diferencia |
|---|---|---|---|---|---|---|
| 10426 | -- | Merel Van De Kam Van De Kamp & Amber Pennings PenningsNED · W WU29 | NED | W WU29 | 1:30:17 | +36:37 |
| 10427 | -- | Diamond Nastasio & Taiamoni PakotiW WU29 | -- | W WU29 | 1:30:17 | +36:37 |
| 10428 | #1452 | Lauren Bryant & Amanda LibbyUSA · W 35-39 · AG #1452 | USA | W 35-39 | 1:30:17 | +36:37 |
| 10429 | #1795 | Alisa Golovunina & Alisa VaraksinaRUS · W 25-29 · AG #1795 | RUS | W 25-29 | 1:30:17 | +36:37 |
| 10430 | #651 | Kynesha Barker & Anna WillcocksAUS · W 16-24 · AG #651 | AUS | W 16-24 | 1:30:18 | +36:38 |
| 10431 | #1564 | Claire Warner & Eleanor Heaton-ArmstrongGBR · W 40-44 · AG #1564 | GBR | W 40-44 | 1:30:19 | +36:39 |
| 10432 | #1796 | Joylyn Ngong & Lucy MacadamGBR · W 25-29 · AG #1796 | GBR | W 25-29 | 1:30:19 | +36:39 |
| 10433 | -- | Kamila Martinez & Carolyn MistrettaUSA · W WU29 | USA | W WU29 | 1:30:19 | +36:39 |
| 10434 | #3609 | Romina MERIGGI & Jacquelyn HOYTW 30-34 · AG #3609 | -- | W 30-34 | 1:30:19 | +36:39 |
| 10435 | #3610 | Eli Kongshavn & Sara KoppangNOR · W 30-34 · AG #3610 | NOR | W 30-34 | 1:30:19 | +36:39 |
| 10436 | #3611 | Lilia Faval & Anne-Christine WolfW 30-34 · AG #3611 | -- | W 30-34 | 1:30:20 | +36:40 |
| 10437 | #1453 | Christelle Krafft & Sophie OuazzaniFRA · W 35-39 · AG #1453 | FRA | W 35-39 | 1:30:20 | +36:40 |
| 10438 | #30 | Angie Smith & Claire EdwardsGBR · W 55-59 · AG #30 | GBR | W 55-59 | 1:30:21 | +36:41 |
| 10439 | #3613 | 江花 缪 & 望云 陈CHN · W 30-34 · AG #3613 | CHN | W 30-34 | 1:30:21 | +36:41 |
| 10440 | #3612 | Stefanie Wenig & Kirsa Marie KlopschGER · W 30-34 · AG #3612 | GER | W 30-34 | 1:30:21 | +36:41 |
| 10441 | #236 | HS Tam & IRISH MANALOP MCFARLANEW 50-54 · AG #236 | -- | W 50-54 | 1:30:21 | +36:41 |
| 10442 | #1454 | Nadia Garcia & Rocio Yazmin Puente CruzMEX · W 35-39 · AG #1454 | MEX | W 35-39 | 1:30:21 | +36:41 |
| 10443 | #3614 | Jaqueline Mongeville & Alina SteffesGER · W 30-34 · AG #3614 | GER | W 30-34 | 1:30:22 | +36:42 |
| 10444 | #652 | Selina Schlarb & Lena HöpflGER · W 16-24 · AG #652 | GER | W 16-24 | 1:30:22 | +36:42 |
| 10445 | #1565 | Jodie Castel & Sarah ApplebyAUS · W 40-44 · AG #1565 | AUS | W 40-44 | 1:30:22 | +36:42 |
| 10446 | #3616 | Taylor Sage & Jessica CastroUSA · W 30-34 · AG #3616 | USA | W 30-34 | 1:30:22 | +36:42 |
| 10447 | #3615 | Mandy Dujardin & Larissa Van De KetterijNED · W 30-34 · AG #3615 | NED | W 30-34 | 1:30:22 | +36:42 |
| 10448 | #3617 | Galina Polishchuk & Barbara Van Der VeldeW 30-34 · AG #3617 | -- | W 30-34 | 1:30:24 | +36:44 |
| 10449 | #1566 | Danielle Lawrie & Alicia RussellW 40-44 · AG #1566 | -- | W 40-44 | 1:30:25 | +36:45 |
| 10450 | #1455 | Holly Ashworth & Christina HalbertGBR · W 35-39 · AG #1455 | GBR | W 35-39 | 1:30:25 | +36:45 |
Página 418 de 552